createdAt,value
2023-04-16T00:01:16.781Z,5.88
2023-04-16T00:03:43.437Z,5.84
2023-04-16T00:06:12.471Z,5.75
2023-04-16T00:08:38.894Z,5.72
2023-04-16T00:11:05.739Z,5.86
2023-04-16T00:13:32.621Z,5.82
2023-04-16T00:15:59.151Z,5.86
2023-04-16T00:18:26.163Z,5.86
2023-04-16T00:20:53.458Z,5.89
2023-04-16T00:23:20.059Z,5.89
2023-04-16T00:25:46.685Z,5.83
2023-04-16T00:28:13.155Z,5.86
2023-04-16T00:30:40.007Z,5.89
2023-04-16T00:33:06.686Z,5.89
2023-04-16T00:35:33.098Z,5.92
2023-04-16T00:37:59.770Z,5.89
2023-04-16T00:40:29.903Z,5.81
2023-04-16T00:42:56.369Z,5.80
2023-04-16T00:45:22.833Z,5.73
2023-04-16T00:47:49.713Z,5.77
2023-04-16T00:50:17.555Z,5.81
2023-04-16T00:52:46.250Z,5.76
2023-04-16T00:55:13.425Z,5.77
2023-04-16T00:57:40.030Z,5.84
2023-04-16T01:00:07.103Z,5.90
2023-04-16T01:02:34.230Z,5.89
2023-04-16T01:05:02.273Z,5.89
2023-04-16T01:07:29.101Z,5.90
2023-04-16T01:09:56.266Z,5.84
2023-04-16T01:12:23.305Z,5.86
2023-04-16T01:14:50.053Z,5.80
2023-04-16T01:17:16.445Z,5.75
2023-04-16T01:19:43.133Z,5.74
2023-04-16T01:22:09.588Z,5.78
2023-04-16T01:24:36.494Z,5.80
2023-04-16T01:27:02.976Z,5.84
2023-04-16T01:29:29.395Z,5.86
2023-04-16T01:31:55.770Z,5.83
2023-04-16T01:34:22.302Z,5.82
2023-04-16T01:36:48.816Z,5.85
2023-04-16T01:39:16.322Z,5.79
2023-04-16T01:41:43.232Z,5.78
2023-04-16T01:44:09.671Z,5.78
2023-04-16T01:46:37.753Z,5.84
2023-04-16T01:49:04.923Z,5.86
2023-04-16T01:51:32.773Z,5.78
2023-04-16T01:53:59.316Z,5.77
2023-04-16T01:56:26.136Z,5.83
2023-04-16T01:58:53.352Z,5.77
2023-04-16T02:01:20.215Z,5.80
2023-04-16T02:03:47.523Z,5.78
2023-04-16T02:06:14.693Z,5.80
2023-04-16T02:08:41.689Z,5.79
2023-04-16T02:11:08.198Z,5.78
2023-04-16T02:13:34.899Z,5.75
2023-04-16T02:16:02.460Z,5.79
2023-04-16T02:18:28.927Z,5.74
2023-04-16T02:20:58.551Z,5.78
2023-04-16T02:23:25.289Z,5.74
2023-04-16T02:25:53.153Z,5.80
2023-04-16T02:28:19.584Z,5.79
2023-04-16T02:30:46.038Z,5.75
2023-04-16T02:33:12.820Z,5.74
2023-04-16T02:35:40.248Z,5.74
2023-04-16T02:38:08.178Z,5.73
2023-04-16T02:40:34.861Z,5.72
2023-04-16T02:43:01.255Z,5.74
2023-04-16T02:45:27.855Z,5.77
2023-04-16T02:47:54.361Z,5.74
2023-04-16T02:50:21.038Z,5.74
2023-04-16T02:52:48.627Z,5.74
2023-04-16T02:55:15.245Z,5.78
2023-04-16T02:57:42.519Z,5.74
2023-04-16T03:00:09.996Z,5.79
2023-04-16T03:02:36.480Z,5.81
2023-04-16T03:05:03.612Z,5.80
2023-04-16T03:07:30.118Z,5.78
2023-04-16T03:09:56.833Z,5.80
2023-04-16T03:12:23.297Z,5.76
2023-04-16T03:14:52.504Z,5.80
2023-04-16T03:17:19.066Z,5.83
2023-04-16T03:19:46.068Z,5.81
2023-04-16T03:22:12.521Z,5.81
2023-04-16T03:24:38.974Z,5.80
2023-04-16T03:27:05.716Z,5.75
2023-04-16T03:29:32.239Z,5.82
2023-04-16T03:31:58.770Z,5.81
2023-04-16T03:34:25.341Z,5.79
2023-04-16T03:36:51.768Z,5.81
2023-04-16T03:39:18.317Z,5.82
2023-04-16T03:41:44.836Z,5.81
2023-04-16T03:44:11.332Z,5.80
2023-04-16T03:46:37.768Z,5.79
2023-04-16T03:49:04.191Z,5.82
2023-04-16T03:51:30.833Z,5.83
2023-04-16T03:53:57.221Z,5.82
2023-04-16T03:56:23.824Z,5.82
2023-04-16T03:58:50.222Z,5.81
2023-04-16T04:01:16.811Z,5.86
2023-04-16T04:03:43.300Z,5.85
2023-04-16T04:06:09.986Z,5.82
2023-04-16T04:08:36.422Z,5.83
2023-04-16T04:11:02.854Z,5.88
2023-04-16T04:13:29.536Z,5.86
2023-04-16T04:15:56.131Z,5.80
2023-04-16T04:18:22.667Z,5.83
2023-04-16T04:20:49.183Z,5.84
2023-04-16T04:23:15.700Z,5.81
2023-04-16T04:25:42.110Z,5.89
2023-04-16T04:28:08.512Z,5.98
2023-04-16T04:30:35.951Z,5.93
2023-04-16T04:33:02.667Z,5.90
2023-04-16T04:35:29.273Z,5.91
2023-04-16T04:37:55.741Z,5.90
2023-04-16T04:40:22.210Z,5.89
2023-04-16T04:42:48.631Z,5.92
2023-04-16T04:45:15.293Z,5.94
2023-04-16T04:47:41.951Z,5.95
2023-04-16T04:50:08.853Z,5.98
2023-04-16T04:52:35.805Z,5.98
2023-04-16T04:55:02.159Z,5.99
2023-04-16T04:57:28.563Z,6.01
2023-04-16T04:59:54.933Z,6.04
2023-04-16T05:02:21.550Z,6.10
2023-04-16T05:04:48.021Z,6.11
2023-04-16T05:07:14.470Z,6.18
2023-04-16T05:09:41.026Z,6.19
2023-04-16T05:12:07.575Z,6.12
2023-04-16T05:14:34.189Z,6.18
2023-04-16T05:17:00.992Z,6.35
2023-04-16T05:19:27.423Z,6.39
2023-04-16T05:21:54.359Z,6.43
2023-04-16T05:24:21.066Z,6.50
2023-04-16T05:26:47.486Z,6.54
2023-04-16T05:29:13.940Z,6.53
2023-04-16T05:31:40.914Z,6.62
2023-04-16T05:34:07.359Z,6.64
2023-04-16T05:36:33.842Z,6.68
2023-04-16T05:39:00.213Z,6.70
2023-04-16T05:41:26.619Z,6.75
2023-04-16T05:43:53.042Z,6.74
2023-04-16T05:46:19.689Z,6.78
2023-04-16T05:48:46.405Z,6.76
2023-04-16T05:51:13.019Z,6.79
2023-04-16T05:53:39.442Z,6.84
2023-04-16T05:56:06.260Z,6.81
2023-04-16T05:58:32.746Z,6.91
2023-04-16T06:00:59.725Z,6.91
2023-04-16T06:03:26.133Z,6.92
2023-04-16T06:05:53.128Z,6.92
2023-04-16T06:08:19.788Z,6.97
2023-04-16T06:10:47.422Z,7.03
2023-04-16T06:13:14.192Z,7.18
2023-04-16T06:15:40.658Z,7.18
2023-04-16T06:18:07.142Z,7.19
2023-04-16T06:20:33.585Z,7.34
2023-04-16T06:22:59.981Z,7.37
2023-04-16T06:25:26.491Z,7.20
2023-04-16T06:27:52.834Z,7.32
2023-04-16T06:30:20.004Z,7.36
2023-04-16T06:32:46.639Z,7.39
2023-04-16T06:35:13.248Z,7.46
2023-04-16T06:37:39.973Z,7.52
2023-04-16T06:40:06.960Z,7.41
2023-04-16T06:42:33.530Z,7.51
2023-04-16T06:45:00.042Z,7.55
2023-04-16T06:47:27.082Z,7.56
2023-04-16T06:49:53.618Z,7.63
2023-04-16T06:52:20.452Z,7.63
2023-04-16T06:54:47.940Z,7.61
2023-04-16T06:57:14.476Z,7.59
2023-04-16T06:59:40.901Z,7.61
2023-04-16T07:02:10.083Z,7.68
2023-04-16T07:04:36.643Z,7.72
2023-04-16T07:07:03.116Z,7.80
2023-04-16T07:09:29.494Z,7.88
2023-04-16T07:11:55.997Z,7.96
2023-04-16T07:14:22.529Z,8.02
2023-04-16T07:16:49.073Z,8.13
2023-04-16T07:19:15.807Z,8.22
2023-04-16T07:21:43.600Z,8.27
2023-04-16T07:24:11.584Z,8.36
2023-04-16T07:26:38.187Z,8.37
2023-04-16T07:29:04.630Z,8.46
2023-04-16T07:31:31.298Z,8.53
2023-04-16T07:33:58.322Z,8.60
2023-04-16T07:36:24.969Z,8.71
2023-04-16T07:38:51.323Z,8.81
2023-04-16T07:41:17.739Z,8.80
2023-04-16T07:43:44.428Z,8.95
2023-04-16T07:46:11.012Z,9.04
2023-04-16T07:48:37.479Z,9.15
2023-04-16T07:51:03.907Z,9.22
2023-04-16T07:53:30.447Z,9.25
2023-04-16T07:55:56.998Z,9.16
2023-04-16T07:58:23.527Z,9.28
2023-04-16T08:00:51.044Z,9.37
2023-04-16T08:03:18.386Z,9.39
2023-04-16T08:05:45.206Z,9.46
2023-04-16T08:08:11.640Z,9.46
2023-04-16T08:10:39.101Z,9.41
2023-04-16T08:13:05.880Z,9.37
2023-04-16T08:15:32.446Z,9.42
2023-04-16T08:18:00.345Z,9.33
2023-04-16T08:20:27.016Z,9.31
2023-04-16T08:22:54.004Z,9.24
2023-04-16T08:25:20.771Z,9.11
2023-04-16T08:27:47.255Z,9.15
2023-04-16T08:30:15.341Z,9.09
2023-04-16T08:32:43.463Z,9.03
2023-04-16T08:35:09.957Z,8.97
2023-04-16T08:37:36.408Z,8.95
2023-04-16T08:40:03.464Z,8.92
2023-04-16T08:42:40.847Z,8.80
2023-04-16T08:45:17.827Z,8.79
2023-04-16T08:47:49.215Z,8.70
2023-04-16T08:50:17.595Z,8.69
2023-04-16T08:52:52.718Z,8.65
2023-04-16T08:55:25.647Z,8.67
2023-04-16T08:57:58.887Z,8.73
2023-04-16T09:00:25.714Z,8.77
2023-04-16T09:02:53.834Z,8.81
2023-04-16T09:05:22.696Z,8.79
2023-04-16T09:07:49.310Z,8.74
2023-04-16T09:10:16.424Z,8.65
2023-04-16T09:12:43.537Z,8.70
2023-04-16T09:15:11.589Z,8.73
2023-04-16T09:17:38.940Z,8.72
2023-04-16T09:20:08.657Z,8.76
2023-04-16T09:22:36.180Z,8.69
2023-04-16T09:25:02.825Z,8.65
2023-04-16T09:27:30.239Z,8.51
2023-04-16T09:29:56.687Z,8.66
2023-04-16T09:32:27.888Z,8.77
2023-04-16T09:35:02.078Z,8.84
2023-04-16T09:37:29.948Z,9.02
2023-04-16T09:39:57.612Z,9.14
2023-04-16T09:42:29.365Z,9.37
2023-04-16T09:44:59.422Z,9.54
2023-04-16T09:47:42.397Z,9.71
2023-04-16T09:50:12.488Z,9.87
2023-04-16T09:52:39.561Z,9.75
2023-04-16T09:55:06.444Z,9.98
2023-04-16T09:57:32.871Z,9.95
2023-04-16T10:00:04.758Z,10.28
2023-04-16T10:02:33.030Z,10.62
2023-04-16T10:05:02.306Z,10.75
2023-04-16T10:07:30.187Z,10.82
2023-04-16T10:09:56.944Z,11.01
2023-04-16T10:12:23.463Z,11.32
2023-04-16T10:14:50.401Z,11.50
2023-04-16T10:17:17.423Z,11.83
2023-04-16T10:19:45.563Z,11.88
2023-04-16T10:22:12.006Z,11.95
2023-04-16T10:24:39.222Z,11.79
2023-04-16T10:27:05.826Z,12.01
2023-04-16T10:29:33.321Z,12.24
2023-04-16T10:32:01.127Z,11.95
2023-04-16T10:34:28.986Z,12.00
2023-04-16T10:36:55.982Z,11.99
2023-04-16T10:39:24.359Z,11.58
2023-04-16T10:42:06.168Z,11.71
2023-04-16T10:44:33.194Z,11.64
2023-04-16T10:46:59.650Z,11.73
2023-04-16T10:49:27.309Z,11.73
2023-04-16T10:51:58.697Z,11.66
2023-04-16T10:54:26.681Z,11.78
2023-04-16T10:56:56.053Z,11.38
2023-04-16T10:59:23.693Z,11.54
2023-04-16T11:01:55.683Z,11.18
2023-04-16T11:04:25.336Z,11.27
2023-04-16T11:07:16.476Z,10.80
2023-04-16T11:09:56.126Z,10.83
2023-04-16T11:12:37.330Z,10.79
2023-04-16T11:15:09.403Z,10.66
2023-04-16T11:17:47.099Z,10.75
2023-04-16T11:20:20.399Z,10.64
2023-04-16T11:22:55.731Z,10.63
2023-04-16T11:25:30.387Z,10.65
2023-04-16T11:28:01.075Z,10.69
2023-04-16T11:30:35.990Z,10.68
2023-04-16T11:33:09.734Z,10.64
2023-04-16T11:35:36.237Z,10.56
2023-04-16T11:38:02.689Z,10.57
2023-04-16T11:40:31.944Z,10.54
2023-04-16T11:43:13.540Z,10.59
2023-04-16T11:45:53.417Z,10.55
2023-04-16T11:48:19.812Z,10.60
2023-04-16T11:50:55.711Z,10.63
2023-04-16T11:53:22.182Z,10.62
2023-04-16T11:55:48.803Z,10.63
2023-04-16T11:58:19.145Z,10.62
2023-04-16T12:00:46.537Z,10.60
2023-04-16T12:03:13.174Z,10.64
2023-04-16T12:05:40.672Z,10.61
2023-04-16T12:08:10.540Z,10.63
2023-04-16T12:10:52.232Z,10.52
2023-04-16T12:13:19.656Z,10.64
2023-04-16T12:15:50.552Z,10.61
2023-04-16T12:18:19.217Z,10.61
2023-04-16T12:20:46.531Z,10.61
2023-04-16T12:23:32.896Z,10.61
2023-04-16T12:26:10.282Z,10.65
2023-04-16T12:28:38.523Z,10.64
2023-04-16T12:31:06.319Z,10.68
2023-04-16T12:33:32.982Z,10.65
2023-04-16T12:35:59.689Z,10.68
2023-04-16T12:38:26.774Z,10.69
2023-04-16T12:40:56.609Z,10.72
2023-04-16T12:43:23.372Z,10.76
2023-04-16T12:45:49.826Z,10.88
2023-04-16T12:48:16.329Z,10.93
2023-04-16T12:50:44.195Z,10.89
2023-04-16T12:53:11.453Z,10.97
2023-04-16T12:55:37.923Z,11.11
2023-04-16T12:58:04.410Z,11.25
2023-04-16T13:00:30.750Z,11.24
2023-04-16T13:02:57.349Z,11.31
2023-04-16T13:05:23.865Z,11.33
2023-04-16T13:07:50.575Z,11.53
2023-04-16T13:10:17.349Z,12.01
2023-04-16T13:12:43.718Z,12.27
2023-04-16T13:15:10.720Z,12.72
2023-04-16T13:17:37.496Z,12.93
2023-04-16T13:20:04.410Z,13.24
2023-04-16T13:22:30.885Z,13.56
2023-04-16T13:24:57.486Z,13.43
2023-04-16T13:27:23.993Z,13.86
2023-04-16T13:29:50.475Z,13.80
2023-04-16T13:32:18.755Z,13.94
2023-04-16T13:34:45.541Z,14.04
2023-04-16T13:37:12.959Z,14.45
2023-04-16T13:39:39.505Z,14.46
2023-04-16T13:42:06.152Z,14.64
2023-04-16T13:44:32.796Z,14.70
2023-04-16T13:46:59.343Z,14.93
2023-04-16T13:49:25.981Z,15.21
2023-04-16T13:51:52.527Z,15.04
2023-04-16T13:54:19.084Z,14.73
2023-04-16T13:56:45.820Z,14.41
2023-04-16T13:59:12.423Z,14.20
2023-04-16T14:01:38.982Z,13.91
2023-04-16T14:04:07.141Z,13.57
2023-04-16T14:06:36.689Z,13.54
2023-04-16T14:09:04.364Z,13.32
2023-04-16T14:11:31.649Z,13.34
2023-04-16T14:13:58.359Z,13.27
2023-04-16T14:16:24.910Z,13.11
2023-04-16T14:18:52.063Z,13.01
2023-04-16T14:21:18.729Z,12.80
2023-04-16T14:23:45.250Z,12.65
2023-04-16T14:26:11.708Z,12.02
2023-04-16T14:28:39.262Z,11.87
2023-04-16T14:31:05.688Z,11.77
2023-04-16T14:33:32.341Z,11.48
2023-04-16T14:36:01.910Z,11.14
2023-04-16T14:38:29.366Z,11.20
2023-04-16T14:40:55.906Z,11.08
2023-04-16T14:43:22.366Z,10.94
2023-04-16T14:45:48.838Z,10.92
2023-04-16T14:48:15.268Z,10.86
2023-04-16T14:50:43.957Z,10.65
2023-04-16T14:53:13.727Z,10.44
2023-04-16T14:55:40.125Z,10.30
2023-04-16T14:58:06.564Z,10.28
2023-04-16T15:00:35.599Z,10.15
2023-04-16T15:03:02.213Z,10.04
2023-04-16T15:05:29.953Z,9.88
2023-04-16T15:07:56.613Z,9.81
2023-04-16T15:10:23.110Z,9.68
2023-04-16T15:12:49.672Z,9.62
2023-04-16T15:15:16.260Z,9.60
2023-04-16T15:17:43.524Z,9.64
2023-04-16T15:20:10.545Z,9.67
2023-04-16T15:22:37.293Z,9.59
2023-04-16T15:25:05.328Z,9.54
2023-04-16T15:27:31.803Z,9.55
2023-04-16T15:29:58.212Z,9.57
2023-04-16T15:32:24.698Z,9.64
2023-04-16T15:34:51.577Z,9.64
2023-04-16T15:37:17.960Z,9.74
2023-04-16T15:39:44.568Z,9.57
2023-04-16T15:42:11.640Z,9.53
2023-04-16T15:44:38.188Z,9.54
2023-04-16T15:47:06.268Z,9.61
2023-04-16T15:49:32.699Z,9.69
2023-04-16T15:51:59.362Z,9.64
2023-04-16T15:54:26.034Z,9.72
2023-04-16T15:56:52.454Z,9.72
2023-04-16T15:59:18.859Z,9.76
2023-04-16T16:01:45.254Z,9.83
2023-04-16T16:04:11.798Z,9.84
2023-04-16T16:06:38.255Z,9.98
2023-04-16T16:09:04.954Z,10.02
2023-04-16T16:11:32.396Z,10.03
2023-04-16T16:14:01.078Z,10.06
2023-04-16T16:16:28.415Z,10.02
2023-04-16T16:18:55.229Z,10.08
2023-04-16T16:21:21.991Z,10.13
2023-04-16T16:23:48.577Z,10.12
2023-04-16T16:26:14.995Z,10.03
2023-04-16T16:28:43.806Z,10.07
2023-04-16T16:31:12.131Z,10.06
2023-04-16T16:33:40.428Z,10.10
2023-04-16T16:36:10.857Z,10.12
2023-04-16T16:38:38.168Z,10.08
2023-04-16T16:41:04.602Z,10.13
2023-04-16T16:43:31.394Z,10.13
2023-04-16T16:45:57.893Z,10.16
2023-04-16T16:48:24.304Z,10.16
2023-04-16T16:50:50.808Z,10.21
2023-04-16T16:53:17.290Z,10.25
2023-04-16T16:55:43.727Z,10.20
2023-04-16T16:58:11.043Z,10.14
2023-04-16T17:00:37.901Z,10.10
2023-04-16T17:03:04.673Z,10.06
2023-04-16T17:05:31.220Z,10.11
2023-04-16T17:07:57.704Z,10.08
2023-04-16T17:10:25.120Z,10.08
2023-04-16T17:12:51.835Z,10.04
2023-04-16T17:15:21.261Z,9.99
2023-04-16T17:17:48.582Z,9.96
2023-04-16T17:20:15.760Z,9.89
2023-04-16T17:22:42.443Z,9.85
2023-04-16T17:25:09.384Z,9.84
2023-04-16T17:27:35.924Z,9.84
2023-04-16T17:30:03.536Z,9.75
2023-04-16T17:32:32.327Z,9.74
2023-04-16T17:35:01.501Z,9.73
2023-04-16T17:37:28.646Z,9.69
2023-04-16T17:39:55.389Z,9.64
2023-04-16T17:42:21.883Z,9.58
2023-04-16T17:44:48.415Z,9.48
2023-04-16T17:47:15.025Z,9.42
2023-04-16T17:49:41.507Z,9.35
2023-04-16T17:52:07.978Z,9.30
2023-04-16T17:54:35.833Z,9.25
2023-04-16T17:57:02.411Z,9.24
2023-04-16T17:59:29.203Z,9.23
2023-04-16T18:01:56.561Z,9.19
2023-04-16T18:04:23.623Z,9.19
2023-04-16T18:06:50.515Z,9.10
2023-04-16T18:09:17.326Z,9.06
2023-04-16T18:11:43.812Z,9.06
2023-04-16T18:14:12.001Z,9.01
2023-04-16T18:16:38.928Z,8.91
2023-04-16T18:19:05.546Z,8.91
2023-04-16T18:21:32.146Z,8.90
2023-04-16T18:24:00.772Z,8.90
2023-04-16T18:26:29.680Z,8.91
2023-04-16T18:28:56.658Z,8.86
2023-04-16T18:31:23.276Z,8.86
2023-04-16T18:33:57.538Z,8.81
2023-04-16T18:36:26.424Z,8.77
2023-04-16T18:39:01.508Z,8.70
2023-04-16T18:41:28.654Z,8.70
2023-04-16T18:43:55.349Z,8.62
2023-04-16T18:46:21.866Z,8.70
2023-04-16T18:48:48.431Z,8.67
2023-04-16T18:51:16.299Z,8.63
2023-04-16T18:53:44.469Z,8.57
2023-04-16T18:56:11.683Z,8.59
2023-04-16T18:58:38.358Z,8.59
2023-04-16T19:01:07.841Z,8.61
2023-04-16T19:03:34.830Z,8.60
2023-04-16T19:06:02.101Z,8.57
2023-04-16T19:08:28.626Z,8.52
2023-04-16T19:10:55.266Z,8.50
2023-04-16T19:13:21.797Z,8.48
2023-04-16T19:15:48.366Z,8.47
2023-04-16T19:18:14.910Z,8.41
2023-04-16T19:20:41.550Z,8.43
2023-04-16T19:23:09.251Z,8.33
2023-04-16T19:25:39.243Z,8.38
2023-04-16T19:28:05.881Z,8.40
2023-04-16T19:30:32.414Z,8.39
2023-04-16T19:32:59.204Z,8.29
2023-04-16T19:35:25.922Z,8.23
2023-04-16T19:37:52.758Z,8.27
2023-04-16T19:40:19.303Z,8.23
2023-04-16T19:42:45.886Z,8.19
2023-04-16T19:45:13.416Z,8.20
2023-04-16T19:47:40.288Z,8.23
2023-04-16T19:50:07.500Z,8.21
2023-04-16T19:52:39.014Z,8.18
2023-04-16T19:55:06.659Z,8.17
2023-04-16T19:57:33.304Z,8.17
2023-04-16T20:00:00.161Z,8.17
2023-04-16T20:02:27.109Z,8.10
2023-04-16T20:04:53.925Z,8.13
2023-04-16T20:07:20.533Z,8.11
2023-04-16T20:09:47.237Z,8.06
2023-04-16T20:12:14.307Z,8.06
2023-04-16T20:14:41.767Z,7.97
2023-04-16T20:17:10.240Z,8.01
2023-04-16T20:19:40.724Z,7.95
2023-04-16T20:22:07.405Z,7.94
2023-04-16T20:24:34.348Z,7.93
2023-04-16T20:27:01.652Z,7.85
2023-04-16T20:29:28.045Z,7.80
2023-04-16T20:31:54.567Z,7.69
2023-04-16T20:34:20.963Z,7.75
2023-04-16T20:36:47.824Z,7.67
2023-04-16T20:39:14.718Z,7.73
2023-04-16T20:41:44.066Z,7.69
2023-04-16T20:44:17.947Z,7.66
2023-04-16T20:46:49.819Z,7.67
2023-04-16T20:49:18.400Z,7.59
2023-04-16T20:51:45.848Z,7.57
2023-04-16T20:54:12.899Z,7.56
2023-04-16T20:56:39.438Z,7.59
2023-04-16T20:59:06.194Z,7.56
2023-04-16T21:01:33.105Z,7.51
2023-04-16T21:04:00.248Z,7.50
2023-04-16T21:06:27.460Z,7.51
2023-04-16T21:08:53.954Z,7.50
2023-04-16T21:11:20.748Z,7.54
2023-04-16T21:13:47.308Z,7.55
2023-04-16T21:16:13.881Z,7.49
2023-04-16T21:18:40.412Z,7.52
2023-04-16T21:21:06.944Z,7.49
2023-04-16T21:23:33.449Z,7.53
2023-04-16T21:26:00.069Z,7.53
2023-04-16T21:28:26.679Z,7.47
2023-04-16T21:30:53.194Z,7.56
2023-04-16T21:33:19.613Z,7.49
2023-04-16T21:35:51.211Z,7.37
2023-04-16T21:38:17.929Z,7.47
2023-04-16T21:40:54.026Z,7.43
2023-04-16T21:43:20.822Z,7.41
2023-04-16T21:45:47.458Z,7.43
2023-04-16T21:48:14.204Z,7.47
2023-04-16T21:50:40.836Z,7.53
2023-04-16T21:53:07.328Z,7.48
2023-04-16T21:55:34.745Z,7.41
2023-04-16T21:58:04.319Z,7.37
2023-04-16T22:00:30.843Z,7.30
2023-04-16T22:03:00.098Z,7.29
2023-04-16T22:05:26.954Z,7.27
2023-04-16T22:07:53.354Z,7.16
2023-04-16T22:10:20.055Z,7.08
2023-04-16T22:12:46.709Z,7.00
2023-04-16T22:15:14.036Z,6.91
2023-04-16T22:17:40.900Z,6.90
2023-04-16T22:20:14.436Z,6.87
2023-04-16T22:22:42.062Z,6.84
2023-04-16T22:25:09.648Z,6.84
2023-04-16T22:27:36.503Z,6.83
2023-04-16T22:30:03.992Z,6.80
2023-04-16T22:32:30.871Z,6.75
2023-04-16T22:34:57.650Z,6.74
2023-04-16T22:37:24.599Z,6.71
2023-04-16T22:39:51.224Z,6.73
2023-04-16T22:42:17.751Z,6.65
2023-04-16T22:44:44.342Z,6.52
2023-04-16T22:47:10.863Z,6.59
2023-04-16T22:49:37.471Z,6.46
2023-04-16T22:52:03.982Z,6.43
2023-04-16T22:54:31.352Z,6.48
2023-04-16T22:56:58.179Z,6.31
2023-04-16T22:59:25.177Z,6.22
2023-04-16T23:01:52.779Z,6.17
2023-04-16T23:04:19.690Z,6.07
2023-04-16T23:06:46.321Z,6.02
2023-04-16T23:09:13.155Z,6.03
2023-04-16T23:11:39.882Z,5.99
2023-04-16T23:14:06.383Z,6.00
2023-04-16T23:16:32.869Z,5.97
2023-04-16T23:18:59.359Z,5.95
2023-04-16T23:21:26.263Z,5.95
2023-04-16T23:23:52.806Z,5.86
2023-04-16T23:26:19.263Z,5.87
2023-04-16T23:28:45.816Z,5.84
2023-04-16T23:31:12.358Z,5.82
2023-04-16T23:33:39.914Z,5.79
2023-04-16T23:36:06.827Z,5.82
2023-04-16T23:38:33.293Z,5.76
2023-04-16T23:40:59.712Z,5.75
2023-04-16T23:43:26.127Z,5.76
2023-04-16T23:45:52.728Z,5.73
2023-04-16T23:48:19.354Z,5.68
2023-04-16T23:50:45.904Z,5.65
2023-04-16T23:53:12.455Z,5.62
2023-04-16T23:55:39.204Z,5.60
2023-04-16T23:58:05.763Z,5.57
